sensor_id;sensor_type;location;lat;lon;timestamp;P1;durP1;ratioP1;P2;durP2;ratioP2
35907;SDS011;22003;50.320;8.054;2024-01-06T00:01:44;15.07;;;5.15;;
35907;SDS011;22003;50.320;8.054;2024-01-06T00:04:09;6.05;;;1.75;;
35907;SDS011;22003;50.320;8.054;2024-01-06T00:06:34;6.13;;;1.50;;
35907;SDS011;22003;50.320;8.054;2024-01-06T00:09:00;5.80;;;1.83;;
35907;SDS011;22003;50.320;8.054;2024-01-06T00:11:25;5.30;;;1.77;;
35907;SDS011;22003;50.320;8.054;2024-01-06T00:13:50;12.68;;;3.70;;
35907;SDS011;22003;50.320;8.054;2024-01-06T00:16:16;7.75;;;2.10;;
35907;SDS011;22003;50.320;8.054;2024-01-06T00:18:43;4.45;;;2.00;;
35907;SDS011;22003;50.320;8.054;2024-01-06T00:21:08;4.30;;;1.95;;
35907;SDS011;22003;50.320;8.054;2024-01-06T00:23:34;7.45;;;3.45;;
35907;SDS011;22003;50.320;8.054;2024-01-06T00:25:59;6.95;;;3.22;;
35907;SDS011;22003;50.320;8.054;2024-01-06T00:28:24;5.13;;;1.73;;
35907;SDS011;22003;50.320;8.054;2024-01-06T00:30:49;6.05;;;2.08;;
35907;SDS011;22003;50.320;8.054;2024-01-06T00:33:15;6.68;;;2.25;;
35907;SDS011;22003;50.320;8.054;2024-01-06T00:35:40;5.22;;;2.00;;
35907;SDS011;22003;50.320;8.054;2024-01-06T00:38:06;4.45;;;2.25;;
35907;SDS011;22003;50.320;8.054;2024-01-06T00:40:31;4.40;;;1.85;;
35907;SDS011;22003;50.320;8.054;2024-01-06T00:42:57;3.53;;;1.55;;
35907;SDS011;22003;50.320;8.054;2024-01-06T00:45:23;6.45;;;2.30;;
35907;SDS011;22003;50.320;8.054;2024-01-06T00:47:48;6.63;;;2.35;;
35907;SDS011;22003;50.320;8.054;2024-01-06T00:50:13;7.95;;;2.08;;
35907;SDS011;22003;50.320;8.054;2024-01-06T00:52:39;6.70;;;2.00;;
35907;SDS011;22003;50.320;8.054;2024-01-06T00:55:04;5.32;;;1.83;;
35907;SDS011;22003;50.320;8.054;2024-01-06T00:57:29;3.33;;;1.20;;
35907;SDS011;22003;50.320;8.054;2024-01-06T00:59:54;2.88;;;1.05;;
35907;SDS011;22003;50.320;8.054;2024-01-06T01:02:20;1.98;;;1.20;;
35907;SDS011;22003;50.320;8.054;2024-01-06T01:04:45;4.00;;;1.13;;
35907;SDS011;22003;50.320;8.054;2024-01-06T01:07:10;7.07;;;1.15;;
35907;SDS011;22003;50.320;8.054;2024-01-06T01:09:37;1.60;;;1.00;;
35907;SDS011;22003;50.320;8.054;2024-01-06T01:12:02;3.55;;;1.00;;
35907;SDS011;22003;50.320;8.054;2024-01-06T01:14:28;6.45;;;1.20;;
35907;SDS011;22003;50.320;8.054;2024-01-06T01:16:53;3.17;;;0.98;;
35907;SDS011;22003;50.320;8.054;2024-01-06T01:19:18;4.10;;;1.00;;
35907;SDS011;22003;50.320;8.054;2024-01-06T01:21:44;3.45;;;1.73;;
35907;SDS011;22003;50.320;8.054;2024-01-06T01:24:09;4.88;;;1.65;;
35907;SDS011;22003;50.320;8.054;2024-01-06T01:26:34;3.85;;;1.27;;
35907;SDS011;22003;50.320;8.054;2024-01-06T01:29:00;3.33;;;0.85;;
35907;SDS011;22003;50.320;8.054;2024-01-06T01:31:25;6.00;;;1.50;;
35907;SDS011;22003;50.320;8.054;2024-01-06T01:33:50;2.10;;;1.20;;
35907;SDS011;22003;50.320;8.054;2024-01-06T01:36:15;7.75;;;1.73;;
35907;SDS011;22003;50.320;8.054;2024-01-06T01:38:43;3.78;;;1.48;;
35907;SDS011;22003;50.320;8.054;2024-01-06T01:41:08;4.82;;;1.40;;
35907;SDS011;22003;50.320;8.054;2024-01-06T01:43:33;5.57;;;1.45;;
35907;SDS011;22003;50.320;8.054;2024-01-06T01:45:59;3.28;;;1.10;;
35907;SDS011;22003;50.320;8.054;2024-01-06T01:48:25;7.30;;;1.23;;
35907;SDS011;22003;50.320;8.054;2024-01-06T01:50:50;4.90;;;0.98;;
35907;SDS011;22003;50.320;8.054;2024-01-06T01:53:17;2.38;;;1.00;;
35907;SDS011;22003;50.320;8.054;2024-01-06T01:55:43;4.43;;;1.13;;
35907;SDS011;22003;50.320;8.054;2024-01-06T01:58:10;2.27;;;0.83;;
35907;SDS011;22003;50.320;8.054;2024-01-06T02:00:37;3.60;;;1.00;;
35907;SDS011;22003;50.320;8.054;2024-01-06T02:03:03;5.13;;;1.08;;
35907;SDS011;22003;50.320;8.054;2024-01-06T02:05:29;5.25;;;1.20;;
35907;SDS011;22003;50.320;8.054;2024-01-06T02:07:55;3.83;;;1.00;;
35907;SDS011;22003;50.320;8.054;2024-01-06T02:10:21;5.55;;;1.30;;
35907;SDS011;22003;50.320;8.054;2024-01-06T02:12:46;2.00;;;0.93;;
35907;SDS011;22003;50.320;8.054;2024-01-06T02:15:12;2.97;;;1.08;;
35907;SDS011;22003;50.320;8.054;2024-01-06T02:17:37;4.85;;;1.08;;
35907;SDS011;22003;50.320;8.054;2024-01-06T02:20:05;2.22;;;1.02;;
35907;SDS011;22003;50.320;8.054;2024-01-06T02:22:31;3.13;;;1.25;;
35907;SDS011;22003;50.320;8.054;2024-01-06T02:24:57;2.22;;;1.02;;
35907;SDS011;22003;50.320;8.054;2024-01-06T02:27:23;3.63;;;1.63;;
35907;SDS011;22003;50.320;8.054;2024-01-06T02:29:48;4.35;;;1.40;;
35907;SDS011;22003;50.320;8.054;2024-01-06T02:32:13;13.60;;;2.80;;
35907;SDS011;22003;50.320;8.054;2024-01-06T02:34:38;10.63;;;2.60;;
35907;SDS011;22003;50.320;8.054;2024-01-06T02:37:04;3.78;;;1.60;;
35907;SDS011;22003;50.320;8.054;2024-01-06T02:39:29;3.17;;;1.20;;
35907;SDS011;22003;50.320;8.054;2024-01-06T02:41:54;4.93;;;1.38;;
35907;SDS011;22003;50.320;8.054;2024-01-06T02:44:19;9.68;;;1.40;;
35907;SDS011;22003;50.320;8.054;2024-01-06T02:46:45;4.32;;;1.75;;
35907;SDS011;22003;50.320;8.054;2024-01-06T02:49:10;4.10;;;1.77;;
35907;SDS011;22003;50.320;8.054;2024-01-06T02:51:35;3.55;;;1.30;;
35907;SDS011;22003;50.320;8.054;2024-01-06T02:54:00;6.47;;;1.38;;
35907;SDS011;22003;50.320;8.054;2024-01-06T02:56:26;4.03;;;1.65;;
35907;SDS011;22003;50.320;8.054;2024-01-06T02:58:51;4.18;;;1.52;;
35907;SDS011;22003;50.320;8.054;2024-01-06T03:01:17;7.28;;;1.58;;
35907;SDS011;22003;50.320;8.054;2024-01-06T03:03:42;5.80;;;1.63;;
35907;SDS011;22003;50.320;8.054;2024-01-06T03:06:07;3.85;;;1.50;;
35907;SDS011;22003;50.320;8.054;2024-01-06T03:08:33;3.10;;;1.50;;
35907;SDS011;22003;50.320;8.054;2024-01-06T03:10:59;5.32;;;1.67;;
35907;SDS011;22003;50.320;8.054;2024-01-06T03:13:25;5.18;;;1.80;;
35907;SDS011;22003;50.320;8.054;2024-01-06T03:15:50;6.30;;;1.77;;
35907;SDS011;22003;50.320;8.054;2024-01-06T03:18:15;3.03;;;1.67;;
35907;SDS011;22003;50.320;8.054;2024-01-06T03:20:41;5.60;;;1.65;;
35907;SDS011;22003;50.320;8.054;2024-01-06T03:23:06;6.65;;;1.67;;
35907;SDS011;22003;50.320;8.054;2024-01-06T03:25:31;3.90;;;1.17;;
35907;SDS011;22003;50.320;8.054;2024-01-06T03:27:56;4.20;;;0.93;;
35907;SDS011;22003;50.320;8.054;2024-01-06T03:30:22;2.33;;;1.02;;
35907;SDS011;22003;50.320;8.054;2024-01-06T03:32:47;2.40;;;1.20;;
35907;SDS011;22003;50.320;8.054;2024-01-06T03:35:12;7.45;;;1.38;;
35907;SDS011;22003;50.320;8.054;2024-01-06T03:37:38;2.92;;;1.27;;
35907;SDS011;22003;50.320;8.054;2024-01-06T03:40:03;6.55;;;1.23;;
35907;SDS011;22003;50.320;8.054;2024-01-06T03:42:28;6.10;;;2.08;;
35907;SDS011;22003;50.320;8.054;2024-01-06T03:44:54;4.45;;;1.38;;
35907;SDS011;22003;50.320;8.054;2024-01-06T03:47:19;8.85;;;1.77;;
35907;SDS011;22003;50.320;8.054;2024-01-06T03:49:44;5.10;;;1.92;;
35907;SDS011;22003;50.320;8.054;2024-01-06T03:52:09;5.60;;;1.70;;
35907;SDS011;22003;50.320;8.054;2024-01-06T03:54:35;5.43;;;1.40;;
35907;SDS011;22003;50.320;8.054;2024-01-06T03:57:00;4.28;;;1.63;;
35907;SDS011;22003;50.320;8.054;2024-01-06T03:59:25;2.90;;;1.40;;
35907;SDS011;22003;50.320;8.054;2024-01-06T04:01:50;6.07;;;1.50;;
35907;SDS011;22003;50.320;8.054;2024-01-06T04:04:16;2.88;;;1.00;;
35907;SDS011;22003;50.320;8.054;2024-01-06T04:06:41;6.68;;;1.10;;
35907;SDS011;22003;50.320;8.054;2024-01-06T04:09:06;5.70;;;1.73;;
35907;SDS011;22003;50.320;8.054;2024-01-06T04:11:31;3.90;;;1.48;;
35907;SDS011;22003;50.320;8.054;2024-01-06T04:13:57;1.58;;;1.08;;
35907;SDS011;22003;50.320;8.054;2024-01-06T04:16:22;6.38;;;2.05;;
35907;SDS011;22003;50.320;8.054;2024-01-06T04:18:47;4.47;;;1.63;;
35907;SDS011;22003;50.320;8.054;2024-01-06T04:21:12;7.32;;;1.90;;
35907;SDS011;22003;50.320;8.054;2024-01-06T04:23:38;3.92;;;1.70;;
35907;SDS011;22003;50.320;8.054;2024-01-06T04:26:03;6.78;;;1.60;;
35907;SDS011;22003;50.320;8.054;2024-01-06T04:28:29;2.53;;;1.25;;
35907;SDS011;22003;50.320;8.054;2024-01-06T04:30:55;3.40;;;1.20;;
35907;SDS011;22003;50.320;8.054;2024-01-06T04:33:20;6.97;;;1.77;;
35907;SDS011;22003;50.320;8.054;2024-01-06T04:35:45;2.20;;;1.55;;
35907;SDS011;22003;50.320;8.054;2024-01-06T04:38:11;2.40;;;1.30;;
35907;SDS011;22003;50.320;8.054;2024-01-06T04:40:36;5.63;;;1.75;;
35907;SDS011;22003;50.320;8.054;2024-01-06T04:43:01;3.20;;;1.30;;
35907;SDS011;22003;50.320;8.054;2024-01-06T04:45:28;2.28;;;1.20;;
35907;SDS011;22003;50.320;8.054;2024-01-06T04:47:53;2.83;;;1.42;;
35907;SDS011;22003;50.320;8.054;2024-01-06T04:50:18;3.33;;;1.55;;
35907;SDS011;22003;50.320;8.054;2024-01-06T04:52:43;3.28;;;1.10;;
35907;SDS011;22003;50.320;8.054;2024-01-06T04:55:09;1.80;;;1.00;;
35907;SDS011;22003;50.320;8.054;2024-01-06T04:57:34;3.65;;;1.40;;
35907;SDS011;22003;50.320;8.054;2024-01-06T05:00:00;2.08;;;1.35;;
35907;SDS011;22003;50.320;8.054;2024-01-06T05:02:25;3.22;;;1.15;;
35907;SDS011;22003;50.320;8.054;2024-01-06T05:04:51;2.33;;;1.42;;
35907;SDS011;22003;50.320;8.054;2024-01-06T05:07:16;5.28;;;1.20;;
35907;SDS011;22003;50.320;8.054;2024-01-06T05:09:41;1.23;;;1.05;;
35907;SDS011;22003;50.320;8.054;2024-01-06T05:12:07;3.25;;;1.20;;
35907;SDS011;22003;50.320;8.054;2024-01-06T05:14:32;2.28;;;0.93;;
35907;SDS011;22003;50.320;8.054;2024-01-06T05:16:58;1.88;;;1.10;;
35907;SDS011;22003;50.320;8.054;2024-01-06T05:19:23;1.70;;;0.82;;
35907;SDS011;22003;50.320;8.054;2024-01-06T05:21:48;3.10;;;1.15;;
35907;SDS011;22003;50.320;8.054;2024-01-06T05:24:14;1.90;;;1.15;;
35907;SDS011;22003;50.320;8.054;2024-01-06T05:26:39;3.55;;;1.13;;
35907;SDS011;22003;50.320;8.054;2024-01-06T05:29:05;1.08;;;0.90;;
35907;SDS011;22003;50.320;8.054;2024-01-06T05:31:30;9.20;;;1.65;;
35907;SDS011;22003;50.320;8.054;2024-01-06T05:33:55;2.45;;;0.80;;
35907;SDS011;22003;50.320;8.054;2024-01-06T05:36:21;3.60;;;1.10;;
35907;SDS011;22003;50.320;8.054;2024-01-06T05:38:46;5.05;;;1.20;;
35907;SDS011;22003;50.320;8.054;2024-01-06T05:41:11;3.22;;;1.00;;
35907;SDS011;22003;50.320;8.054;2024-01-06T05:43:36;1.83;;;0.98;;
35907;SDS011;22003;50.320;8.054;2024-01-06T05:46:02;3.17;;;1.27;;
35907;SDS011;22003;50.320;8.054;2024-01-06T05:48:27;3.60;;;1.52;;
35907;SDS011;22003;50.320;8.054;2024-01-06T05:50:52;1.90;;;1.40;;
35907;SDS011;22003;50.320;8.054;2024-01-06T05:53:17;3.03;;;1.55;;
35907;SDS011;22003;50.320;8.054;2024-01-06T05:55:43;3.13;;;2.05;;
35907;SDS011;22003;50.320;8.054;2024-01-06T05:58:09;8.23;;;1.75;;
35907;SDS011;22003;50.320;8.054;2024-01-06T06:00:34;3.40;;;1.00;;
35907;SDS011;22003;50.320;8.054;2024-01-06T06:02:59;2.78;;;1.52;;
35907;SDS011;22003;50.320;8.054;2024-01-06T06:05:24;2.63;;;1.20;;
35907;SDS011;22003;50.320;8.054;2024-01-06T06:07:50;3.35;;;1.27;;
35907;SDS011;22003;50.320;8.054;2024-01-06T06:10:15;2.03;;;1.42;;
35907;SDS011;22003;50.320;8.054;2024-01-06T06:12:46;2.30;;;1.40;;
35907;SDS011;22003;50.320;8.054;2024-01-06T06:15:11;2.22;;;1.00;;
35907;SDS011;22003;50.320;8.054;2024-01-06T06:17:36;6.15;;;1.30;;
35907;SDS011;22003;50.320;8.054;2024-01-06T06:20:04;5.15;;;1.27;;
35907;SDS011;22003;50.320;8.054;2024-01-06T06:22:31;3.58;;;0.98;;
35907;SDS011;22003;50.320;8.054;2024-01-06T06:24:57;2.42;;;1.02;;
35907;SDS011;22003;50.320;8.054;2024-01-06T06:27:25;2.13;;;1.33;;
35907;SDS011;22003;50.320;8.054;2024-01-06T06:29:51;1.80;;;1.02;;
35907;SDS011;22003;50.320;8.054;2024-01-06T06:32:17;2.50;;;1.40;;
35907;SDS011;22003;50.320;8.054;2024-01-06T06:34:42;3.13;;;1.27;;
35907;SDS011;22003;50.320;8.054;2024-01-06T06:37:08;4.63;;;1.50;;
35907;SDS011;22003;50.320;8.054;2024-01-06T06:39:33;1.85;;;1.17;;
35907;SDS011;22003;50.320;8.054;2024-01-06T06:42:00;3.03;;;1.60;;
35907;SDS011;22003;50.320;8.054;2024-01-06T06:44:25;4.00;;;1.10;;
35907;SDS011;22003;50.320;8.054;2024-01-06T06:46:50;4.90;;;1.65;;
35907;SDS011;22003;50.320;8.054;2024-01-06T06:49:16;2.92;;;1.40;;
35907;SDS011;22003;50.320;8.054;2024-01-06T06:51:41;4.00;;;1.58;;
35907;SDS011;22003;50.320;8.054;2024-01-06T06:54:11;6.15;;;1.70;;
35907;SDS011;22003;50.320;8.054;2024-01-06T06:56:37;3.53;;;1.92;;
35907;SDS011;22003;50.320;8.054;2024-01-06T06:59:02;3.33;;;2.40;;
35907;SDS011;22003;50.320;8.054;2024-01-06T07:01:28;2.95;;;2.13;;
35907;SDS011;22003;50.320;8.054;2024-01-06T07:03:53;2.47;;;1.65;;
35907;SDS011;22003;50.320;8.054;2024-01-06T07:06:18;2.75;;;1.52;;
35907;SDS011;22003;50.320;8.054;2024-01-06T07:08:44;4.75;;;1.75;;
35907;SDS011;22003;50.320;8.054;2024-01-06T07:11:09;3.75;;;2.53;;
35907;SDS011;22003;50.320;8.054;2024-01-06T07:13:36;5.72;;;2.15;;
35907;SDS011;22003;50.320;8.054;2024-01-06T07:16:01;2.22;;;1.83;;
35907;SDS011;22003;50.320;8.054;2024-01-06T07:18:27;4.57;;;1.88;;
35907;SDS011;22003;50.320;8.054;2024-01-06T07:20:52;2.78;;;1.77;;
35907;SDS011;22003;50.320;8.054;2024-01-06T07:23:17;2.63;;;1.70;;
35907;SDS011;22003;50.320;8.054;2024-01-06T07:25:42;3.53;;;2.00;;
35907;SDS011;22003;50.320;8.054;2024-01-06T07:28:08;7.15;;;3.83;;
35907;SDS011;22003;50.320;8.054;2024-01-06T07:30:33;7.07;;;2.58;;
35907;SDS011;22003;50.320;8.054;2024-01-06T07:32:58;8.65;;;4.25;;
35907;SDS011;22003;50.320;8.054;2024-01-06T07:35:24;3.00;;;2.22;;
35907;SDS011;22003;50.320;8.054;2024-01-06T07:37:49;3.67;;;1.88;;
35907;SDS011;22003;50.320;8.054;2024-01-06T07:40:14;6.28;;;2.80;;
35907;SDS011;22003;50.320;8.054;2024-01-06T07:42:41;5.00;;;1.80;;
35907;SDS011;22003;50.320;8.054;2024-01-06T07:45:07;1.48;;;1.38;;
35907;SDS011;22003;50.320;8.054;2024-01-06T07:47:33;2.13;;;1.52;;
35907;SDS011;22003;50.320;8.054;2024-01-06T07:49:58;4.85;;;1.90;;
35907;SDS011;22003;50.320;8.054;2024-01-06T07:52:23;2.60;;;1.30;;
35907;SDS011;22003;50.320;8.054;2024-01-06T07:54:48;6.35;;;1.45;;
35907;SDS011;22003;50.320;8.054;2024-01-06T07:57:14;4.43;;;1.45;;
35907;SDS011;22003;50.320;8.054;2024-01-06T07:59:39;3.35;;;1.38;;
35907;SDS011;22003;50.320;8.054;2024-01-06T08:02:05;3.58;;;1.80;;
35907;SDS011;22003;50.320;8.054;2024-01-06T08:04:30;4.53;;;1.23;;
35907;SDS011;22003;50.320;8.054;2024-01-06T08:06:55;3.50;;;1.60;;
35907;SDS011;22003;50.320;8.054;2024-01-06T08:09:21;1.80;;;1.45;;
35907;SDS011;22003;50.320;8.054;2024-01-06T08:11:48;2.53;;;1.52;;
35907;SDS011;22003;50.320;8.054;2024-01-06T08:14:14;5.22;;;1.92;;
35907;SDS011;22003;50.320;8.054;2024-01-06T08:16:39;2.88;;;1.70;;
35907;SDS011;22003;50.320;8.054;2024-01-06T08:19:04;2.08;;;1.88;;
35907;SDS011;22003;50.320;8.054;2024-01-06T08:21:29;2.45;;;1.77;;
35907;SDS011;22003;50.320;8.054;2024-01-06T08:23:55;4.43;;;1.95;;
35907;SDS011;22003;50.320;8.054;2024-01-06T08:26:20;3.80;;;1.80;;
35907;SDS011;22003;50.320;8.054;2024-01-06T08:28:46;4.32;;;1.77;;
35907;SDS011;22003;50.320;8.054;2024-01-06T08:31:11;6.55;;;2.00;;
35907;SDS011;22003;50.320;8.054;2024-01-06T08:33:36;2.40;;;1.67;;
35907;SDS011;22003;50.320;8.054;2024-01-06T08:36:02;4.15;;;2.00;;
35907;SDS011;22003;50.320;8.054;2024-01-06T08:38:27;3.63;;;1.83;;
35907;SDS011;22003;50.320;8.054;2024-01-06T08:40:53;2.30;;;1.73;;
35907;SDS011;22003;50.320;8.054;2024-01-06T08:43:18;5.20;;;2.00;;
35907;SDS011;22003;50.320;8.054;2024-01-06T08:45:43;2.75;;;1.80;;
35907;SDS011;22003;50.320;8.054;2024-01-06T08:48:09;4.40;;;1.73;;
35907;SDS011;22003;50.320;8.054;2024-01-06T08:50:36;2.17;;;1.63;;
35907;SDS011;22003;50.320;8.054;2024-01-06T08:53:01;3.65;;;1.85;;
35907;SDS011;22003;50.320;8.054;2024-01-06T08:55:27;6.10;;;2.38;;
35907;SDS011;22003;50.320;8.054;2024-01-06T08:57:52;3.28;;;1.98;;
35907;SDS011;22003;50.320;8.054;2024-01-06T09:00:17;2.45;;;1.67;;
35907;SDS011;22003;50.320;8.054;2024-01-06T09:02:42;4.13;;;1.85;;
35907;SDS011;22003;50.320;8.054;2024-01-06T09:05:08;3.90;;;2.20;;
35907;SDS011;22003;50.320;8.054;2024-01-06T09:07:33;3.80;;;2.10;;
35907;SDS011;22003;50.320;8.054;2024-01-06T09:09:58;4.45;;;2.38;;
35907;SDS011;22003;50.320;8.054;2024-01-06T09:12:24;2.58;;;1.60;;
35907;SDS011;22003;50.320;8.054;2024-01-06T09:14:49;5.20;;;2.53;;
35907;SDS011;22003;50.320;8.054;2024-01-06T09:17:15;4.75;;;2.30;;
35907;SDS011;22003;50.320;8.054;2024-01-06T09:19:40;4.90;;;2.20;;
35907;SDS011;22003;50.320;8.054;2024-01-06T09:22:05;13.75;;;5.95;;
35907;SDS011;22003;50.320;8.054;2024-01-06T09:24:31;8.23;;;2.90;;
35907;SDS011;22003;50.320;8.054;2024-01-06T09:26:56;8.00;;;2.80;;
35907;SDS011;22003;50.320;8.054;2024-01-06T09:29:21;3.15;;;1.90;;
35907;SDS011;22003;50.320;8.054;2024-01-06T09:31:47;5.82;;;2.80;;
35907;SDS011;22003;50.320;8.054;2024-01-06T09:34:12;3.65;;;1.83;;
35907;SDS011;22003;50.320;8.054;2024-01-06T09:36:37;5.70;;;2.83;;
35907;SDS011;22003;50.320;8.054;2024-01-06T09:39:03;5.75;;;3.30;;
35907;SDS011;22003;50.320;8.054;2024-01-06T09:41:29;5.05;;;3.50;;
35907;SDS011;22003;50.320;8.054;2024-01-06T09:43:54;7.38;;;3.75;;
35907;SDS011;22003;50.320;8.054;2024-01-06T09:46:21;5.22;;;2.95;;
35907;SDS011;22003;50.320;8.054;2024-01-06T09:48:51;5.80;;;3.38;;
35907;SDS011;22003;50.320;8.054;2024-01-06T09:51:21;7.95;;;3.15;;
35907;SDS011;22003;50.320;8.054;2024-01-06T09:53:52;5.15;;;2.95;;
35907;SDS011;22003;50.320;8.054;2024-01-06T09:56:23;5.47;;;3.58;;
35907;SDS011;22003;50.320;8.054;2024-01-06T09:58:50;6.33;;;3.20;;
35907;SDS011;22003;50.320;8.054;2024-01-06T10:01:15;5.65;;;3.40;;
35907;SDS011;22003;50.320;8.054;2024-01-06T10:03:42;7.15;;;3.30;;
35907;SDS011;22003;50.320;8.054;2024-01-06T10:06:07;5.18;;;3.25;;
35907;SDS011;22003;50.320;8.054;2024-01-06T10:08:34;5.32;;;3.40;;
35907;SDS011;22003;50.320;8.054;2024-01-06T10:11:00;8.40;;;4.07;;
35907;SDS011;22003;50.320;8.054;2024-01-06T10:13:26;4.38;;;3.40;;
35907;SDS011;22003;50.320;8.054;2024-01-06T10:15:52;8.32;;;3.42;;
35907;SDS011;22003;50.320;8.054;2024-01-06T10:18:18;4.97;;;3.50;;
35907;SDS011;22003;50.320;8.054;2024-01-06T10:20:44;4.22;;;3.05;;
35907;SDS011;22003;50.320;8.054;2024-01-06T10:23:10;6.18;;;3.30;;
35907;SDS011;22003;50.320;8.054;2024-01-06T10:25:35;3.85;;;2.90;;
35907;SDS011;22003;50.320;8.054;2024-01-06T10:28:01;4.78;;;2.72;;
35907;SDS011;22003;50.320;8.054;2024-01-06T10:30:29;10.43;;;3.20;;
35907;SDS011;22003;50.320;8.054;2024-01-06T10:32:54;5.72;;;3.00;;
35907;SDS011;22003;50.320;8.054;2024-01-06T10:35:19;7.25;;;3.00;;
35907;SDS011;22003;50.320;8.054;2024-01-06T10:37:45;5.28;;;3.55;;
35907;SDS011;22003;50.320;8.054;2024-01-06T10:40:12;6.97;;;3.67;;
35907;SDS011;22003;50.320;8.054;2024-01-06T10:42:41;7.45;;;4.57;;
35907;SDS011;22003;50.320;8.054;2024-01-06T10:45:07;6.80;;;3.53;;
35907;SDS011;22003;50.320;8.054;2024-01-06T10:47:35;4.97;;;3.25;;
35907;SDS011;22003;50.320;8.054;2024-01-06T10:50:04;4.18;;;2.60;;
35907;SDS011;22003;50.320;8.054;2024-01-06T10:52:30;4.03;;;2.70;;
35907;SDS011;22003;50.320;8.054;2024-01-06T10:54:55;3.63;;;2.38;;
35907;SDS011;22003;50.320;8.054;2024-01-06T10:57:21;5.75;;;2.50;;
35907;SDS011;22003;50.320;8.054;2024-01-06T10:59:48;5.57;;;3.35;;
35907;SDS011;22003;50.320;8.054;2024-01-06T11:02:15;3.83;;;2.75;;
35907;SDS011;22003;50.320;8.054;2024-01-06T11:04:46;6.15;;;3.67;;
35907;SDS011;22003;50.320;8.054;2024-01-06T11:07:13;4.72;;;3.17;;
35907;SDS011;22003;50.320;8.054;2024-01-06T11:09:41;5.70;;;3.28;;
35907;SDS011;22003;50.320;8.054;2024-01-06T11:12:13;6.50;;;3.28;;
35907;SDS011;22003;50.320;8.054;2024-01-06T11:14:38;9.88;;;5.53;;
35907;SDS011;22003;50.320;8.054;2024-01-06T11:17:04;14.52;;;7.35;;
35907;SDS011;22003;50.320;8.054;2024-01-06T11:22:18;26.45;;;13.13;;
35907;SDS011;22003;50.320;8.054;2024-01-06T11:24:48;27.33;;;13.13;;
35907;SDS011;22003;50.320;8.054;2024-01-06T11:27:21;22.40;;;11.48;;
35907;SDS011;22003;50.320;8.054;2024-01-06T11:29:48;24.65;;;11.23;;
35907;SDS011;22003;50.320;8.054;2024-01-06T11:32:20;24.67;;;11.30;;
35907;SDS011;22003;50.320;8.054;2024-01-06T11:34:49;27.77;;;12.82;;
35907;SDS011;22003;50.320;8.054;2024-01-06T11:37:25;24.17;;;11.90;;
35907;SDS011;22003;50.320;8.054;2024-01-06T11:40:03;26.63;;;12.63;;
35907;SDS011;22003;50.320;8.054;2024-01-06T11:42:34;24.77;;;11.40;;
35907;SDS011;22003;50.320;8.054;2024-01-06T11:45:04;27.70;;;11.82;;
35907;SDS011;22003;50.320;8.054;2024-01-06T11:47:33;29.67;;;13.50;;
35907;SDS011;22003;50.320;8.054;2024-01-06T11:50:02;30.55;;;12.73;;
35907;SDS011;22003;50.320;8.054;2024-01-06T11:52:31;32.75;;;13.07;;
35907;SDS011;22003;50.320;8.054;2024-01-06T11:54:57;25.98;;;11.63;;
35907;SDS011;22003;50.320;8.054;2024-01-06T11:57:23;29.38;;;12.88;;
35907;SDS011;22003;50.320;8.054;2024-01-06T11:59:50;24.57;;;11.90;;
35907;SDS011;22003;50.320;8.054;2024-01-06T12:02:17;27.63;;;12.73;;
35907;SDS011;22003;50.320;8.054;2024-01-06T12:04:45;27.33;;;12.70;;
35907;SDS011;22003;50.320;8.054;2024-01-06T12:07:13;30.27;;;12.43;;
35907;SDS011;22003;50.320;8.054;2024-01-06T12:09:40;29.60;;;12.37;;
35907;SDS011;22003;50.320;8.054;2024-01-06T12:12:05;23.65;;;11.32;;
35907;SDS011;22003;50.320;8.054;2024-01-06T12:14:31;30.33;;;11.93;;
35907;SDS011;22003;50.320;8.054;2024-01-06T12:16:58;22.55;;;10.48;;
35907;SDS011;22003;50.320;8.054;2024-01-06T12:19:27;23.20;;;10.57;;
35907;SDS011;22003;50.320;8.054;2024-01-06T12:21:53;23.73;;;10.90;;
35907;SDS011;22003;50.320;8.054;2024-01-06T12:24:18;22.67;;;10.43;;
35907;SDS011;22003;50.320;8.054;2024-01-06T12:26:45;20.02;;;9.55;;
35907;SDS011;22003;50.320;8.054;2024-01-06T12:29:14;17.90;;;9.13;;
35907;SDS011;22003;50.320;8.054;2024-01-06T12:31:41;18.05;;;9.00;;
35907;SDS011;22003;50.320;8.054;2024-01-06T12:34:08;21.33;;;9.18;;
35907;SDS011;22003;50.320;8.054;2024-01-06T12:36:38;17.00;;;8.55;;
35907;SDS011;22003;50.320;8.054;2024-01-06T12:39:05;16.48;;;8.18;;
35907;SDS011;22003;50.320;8.054;2024-01-06T12:41:36;17.75;;;8.32;;
35907;SDS011;22003;50.320;8.054;2024-01-06T12:46:28;16.90;;;8.17;;
35907;SDS011;22003;50.320;8.054;2024-01-06T12:48:53;14.57;;;7.47;;
35907;SDS011;22003;50.320;8.054;2024-01-06T12:51:18;19.35;;;8.63;;
35907;SDS011;22003;50.320;8.054;2024-01-06T12:53:43;16.38;;;7.93;;
35907;SDS011;22003;50.320;8.054;2024-01-06T12:56:09;15.30;;;7.97;;
35907;SDS011;22003;50.320;8.054;2024-01-06T12:58:34;16.48;;;7.57;;
35907;SDS011;22003;50.320;8.054;2024-01-06T13:01:00;12.07;;;6.70;;
35907;SDS011;22003;50.320;8.054;2024-01-06T13:03:25;15.45;;;7.28;;
35907;SDS011;22003;50.320;8.054;2024-01-06T13:05:50;12.40;;;6.78;;
35907;SDS011;22003;50.320;8.054;2024-01-06T13:08:16;12.05;;;6.53;;
35907;SDS011;22003;50.320;8.054;2024-01-06T13:10:41;12.75;;;5.90;;
35907;SDS011;22003;50.320;8.054;2024-01-06T13:13:06;13.32;;;7.00;;
35907;SDS011;22003;50.320;8.054;2024-01-06T13:15:31;11.65;;;6.10;;
35907;SDS011;22003;50.320;8.054;2024-01-06T13:17:57;10.68;;;6.15;;
35907;SDS011;22003;50.320;8.054;2024-01-06T13:20:22;10.88;;;6.25;;
35907;SDS011;22003;50.320;8.054;2024-01-06T13:22:47;10.32;;;5.90;;
35907;SDS011;22003;50.320;8.054;2024-01-06T13:25:13;12.50;;;6.82;;
35907;SDS011;22003;50.320;8.054;2024-01-06T13:27:38;10.00;;;5.38;;
35907;SDS011;22003;50.320;8.054;2024-01-06T13:30:04;7.90;;;4.20;;
35907;SDS011;22003;50.320;8.054;2024-01-06T13:32:30;9.80;;;5.78;;
35907;SDS011;22003;50.320;8.054;2024-01-06T13:34:55;7.43;;;4.18;;
35907;SDS011;22003;50.320;8.054;2024-01-06T13:37:26;9.25;;;4.50;;
35907;SDS011;22003;50.320;8.054;2024-01-06T13:39:52;8.48;;;4.80;;
35907;SDS011;22003;50.320;8.054;2024-01-06T13:42:18;7.32;;;4.40;;
35907;SDS011;22003;50.320;8.054;2024-01-06T13:44:43;7.03;;;4.35;;
35907;SDS011;22003;50.320;8.054;2024-01-06T13:47:09;7.28;;;4.20;;
35907;SDS011;22003;50.320;8.054;2024-01-06T13:49:34;7.65;;;4.32;;
35907;SDS011;22003;50.320;8.054;2024-01-06T13:51:59;7.15;;;4.00;;
35907;SDS011;22003;50.320;8.054;2024-01-06T13:54:25;4.40;;;3.00;;
35907;SDS011;22003;50.320;8.054;2024-01-06T13:56:50;7.57;;;3.22;;
35907;SDS011;22003;50.320;8.054;2024-01-06T13:59:16;6.53;;;3.58;;
35907;SDS011;22003;50.320;8.054;2024-01-06T14:01:42;8.35;;;3.50;;
35907;SDS011;22003;50.320;8.054;2024-01-06T14:04:07;6.32;;;3.53;;
35907;SDS011;22003;50.320;8.054;2024-01-06T14:06:33;6.18;;;3.38;;
35907;SDS011;22003;50.320;8.054;2024-01-06T14:08:58;5.13;;;3.45;;
35907;SDS011;22003;50.320;8.054;2024-01-06T14:11:25;7.90;;;3.63;;
35907;SDS011;22003;50.320;8.054;2024-01-06T14:13:52;7.10;;;4.17;;
35907;SDS011;22003;50.320;8.054;2024-01-06T14:16:18;8.37;;;4.40;;
35907;SDS011;22003;50.320;8.054;2024-01-06T14:18:44;6.70;;;4.03;;
35907;SDS011;22003;50.320;8.054;2024-01-06T14:21:10;6.90;;;3.83;;
35907;SDS011;22003;50.320;8.054;2024-01-06T14:23:35;6.95;;;3.63;;
35907;SDS011;22003;50.320;8.054;2024-01-06T14:26:01;7.07;;;3.63;;
35907;SDS011;22003;50.320;8.054;2024-01-06T14:28:27;7.57;;;4.28;;
35907;SDS011;22003;50.320;8.054;2024-01-06T14:30:52;5.38;;;3.53;;
35907;SDS011;22003;50.320;8.054;2024-01-06T14:33:18;8.07;;;3.90;;
35907;SDS011;22003;50.320;8.054;2024-01-06T14:35:44;6.15;;;3.65;;
35907;SDS011;22003;50.320;8.054;2024-01-06T14:38:10;4.75;;;3.17;;
35907;SDS011;22003;50.320;8.054;2024-01-06T14:40:36;6.32;;;3.45;;
35907;SDS011;22003;50.320;8.054;2024-01-06T14:43:01;8.55;;;3.85;;